sensor_id;sensor_type;location;lat;lon;timestamp;temperature;humidity
11538;DHT22;50159;49.426;11.182;2023-04-01T00:01:46;8.00;99.90
11538;DHT22;50159;49.426;11.182;2023-04-01T00:04:13;8.00;99.90
11538;DHT22;50159;49.426;11.182;2023-04-01T00:06:40;8.10;99.90
11538;DHT22;50159;49.426;11.182;2023-04-01T00:09:07;8.10;99.90
11538;DHT22;50159;49.426;11.182;2023-04-01T00:11:33;8.10;99.90
11538;DHT22;50159;49.426;11.182;2023-04-01T00:14:00;8.20;99.90
11538;DHT22;50159;49.426;11.182;2023-04-01T00:16:27;8.20;99.90
11538;DHT22;50159;49.426;11.182;2023-04-01T00:18:54;8.20;99.90
11538;DHT22;50159;49.426;11.182;2023-04-01T00:21:21;8.20;99.90
11538;DHT22;50159;49.426;11.182;2023-04-01T00:23:50;8.30;99.90
11538;DHT22;50159;49.426;11.182;2023-04-01T00:26:18;8.30;99.90
11538;DHT22;50159;49.426;11.182;2023-04-01T00:28:48;8.40;99.90
11538;DHT22;50159;49.426;11.182;2023-04-01T00:31:15;8.40;99.90
11538;DHT22;50159;49.426;11.182;2023-04-01T00:33:43;8.40;99.90
11538;DHT22;50159;49.426;11.182;2023-04-01T00:36:11;8.50;99.90
11538;DHT22;50159;49.426;11.182;2023-04-01T00:38:41;8.50;99.90
11538;DHT22;50159;49.426;11.182;2023-04-01T00:41:11;8.50;99.90
11538;DHT22;50159;49.426;11.182;2023-04-01T00:43:45;8.60;99.90
11538;DHT22;50159;49.426;11.182;2023-04-01T00:46:15;8.60;99.90
11538;DHT22;50159;49.426;11.182;2023-04-01T00:48:45;8.60;99.90
11538;DHT22;50159;49.426;11.182;2023-04-01T00:51:21;8.60;99.90
11538;DHT22;50159;49.426;11.182;2023-04-01T00:53:52;8.60;99.90
11538;DHT22;50159;49.426;11.182;2023-04-01T00:56:24;8.60;99.90
11538;DHT22;50159;49.426;11.182;2023-04-01T00:59:07;8.60;99.90
11538;DHT22;50159;49.426;11.182;2023-04-01T01:01:37;8.60;99.90
11538;DHT22;50159;49.426;11.182;2023-04-01T01:04:04;8.70;99.90
11538;DHT22;50159;49.426;11.182;2023-04-01T01:06:48;8.70;99.90
11538;DHT22;50159;49.426;11.182;2023-04-01T01:23:52;8.60;99.90
11538;DHT22;50159;49.426;11.182;2023-04-01T01:26:49;8.60;99.90
11538;DHT22;50159;49.426;11.182;2023-04-01T01:37:22;8.60;99.90
11538;DHT22;50159;49.426;11.182;2023-04-01T01:40:00;8.60;99.90
11538;DHT22;50159;49.426;11.182;2023-04-01T01:42:31;8.60;99.90
11538;DHT22;50159;49.426;11.182;2023-04-01T01:45:02;8.60;99.90
11538;DHT22;50159;49.426;11.182;2023-04-01T01:47:33;8.60;99.90
11538;DHT22;50159;49.426;11.182;2023-04-01T01:50:02;8.60;99.90
11538;DHT22;50159;49.426;11.182;2023-04-01T01:52:31;8.60;99.90
11538;DHT22;50159;49.426;11.182;2023-04-01T01:54:58;8.60;99.90
11538;DHT22;50159;49.426;11.182;2023-04-01T01:57:34;8.60;99.90
11538;DHT22;50159;49.426;11.182;2023-04-01T02:00:09;8.60;99.90
11538;DHT22;50159;49.426;11.182;2023-04-01T02:02:41;8.60;99.90
11538;DHT22;50159;49.426;11.182;2023-04-01T02:05:21;8.60;99.90
11538;DHT22;50159;49.426;11.182;2023-04-01T02:08:16;8.60;99.90
11538;DHT22;50159;49.426;11.182;2023-04-01T02:11:15;8.60;99.90
11538;DHT22;50159;49.426;11.182;2023-04-01T02:14:23;8.60;99.90
11538;DHT22;50159;49.426;11.182;2023-04-01T02:17:02;8.60;99.90
11538;DHT22;50159;49.426;11.182;2023-04-01T02:19:40;8.60;99.90
11538;DHT22;50159;49.426;11.182;2023-04-01T02:22:18;8.60;99.90
11538;DHT22;50159;49.426;11.182;2023-04-01T02:24:50;8.60;99.90
11538;DHT22;50159;49.426;11.182;2023-04-01T02:27:20;8.60;99.90
11538;DHT22;50159;49.426;11.182;2023-04-01T02:29:48;8.60;99.90
11538;DHT22;50159;49.426;11.182;2023-04-01T02:32:15;8.60;99.90
11538;DHT22;50159;49.426;11.182;2023-04-01T02:34:44;8.60;99.90
11538;DHT22;50159;49.426;11.182;2023-04-01T02:37:12;8.60;99.90
11538;DHT22;50159;49.426;11.182;2023-04-01T02:39:40;8.60;99.90
11538;DHT22;50159;49.426;11.182;2023-04-01T02:42:06;8.60;99.90
11538;DHT22;50159;49.426;11.182;2023-04-01T02:44:33;8.60;99.90
11538;DHT22;50159;49.426;11.182;2023-04-01T02:47:00;8.60;99.90
11538;DHT22;50159;49.426;11.182;2023-04-01T02:49:28;8.60;99.90
11538;DHT22;50159;49.426;11.182;2023-04-01T02:51:54;8.60;99.90
11538;DHT22;50159;49.426;11.182;2023-04-01T02:54:21;8.60;99.90
11538;DHT22;50159;49.426;11.182;2023-04-01T02:56:48;8.50;99.90
11538;DHT22;50159;49.426;11.182;2023-04-01T02:59:15;8.50;99.90
11538;DHT22;50159;49.426;11.182;2023-04-01T03:01:41;8.50;99.90
11538;DHT22;50159;49.426;11.182;2023-04-01T03:04:08;8.50;99.90
11538;DHT22;50159;49.426;11.182;2023-04-01T03:06:35;8.50;99.90
11538;DHT22;50159;49.426;11.182;2023-04-01T03:09:02;8.60;99.90
11538;DHT22;50159;49.426;11.182;2023-04-01T03:11:29;8.60;99.90
11538;DHT22;50159;49.426;11.182;2023-04-01T03:13:56;8.60;99.90
11538;DHT22;50159;49.426;11.182;2023-04-01T03:16:23;8.50;99.90
11538;DHT22;50159;49.426;11.182;2023-04-01T03:18:50;8.50;99.90
11538;DHT22;50159;49.426;11.182;2023-04-01T03:21:22;8.50;99.90
11538;DHT22;50159;49.426;11.182;2023-04-01T03:23:49;8.50;99.90
11538;DHT22;50159;49.426;11.182;2023-04-01T03:26:17;8.50;99.90
11538;DHT22;50159;49.426;11.182;2023-04-01T03:28:44;8.50;99.90
11538;DHT22;50159;49.426;11.182;2023-04-01T03:31:11;8.50;99.90
11538;DHT22;50159;49.426;11.182;2023-04-01T03:33:38;8.50;99.90
11538;DHT22;50159;49.426;11.182;2023-04-01T03:36:06;8.50;99.90
11538;DHT22;50159;49.426;11.182;2023-04-01T03:38:34;8.50;99.90
11538;DHT22;50159;49.426;11.182;2023-04-01T03:41:02;8.50;99.90
11538;DHT22;50159;49.426;11.182;2023-04-01T03:43:29;8.50;99.90
11538;DHT22;50159;49.426;11.182;2023-04-01T03:45:56;8.50;99.90
11538;DHT22;50159;49.426;11.182;2023-04-01T03:48:25;8.50;99.90
11538;DHT22;50159;49.426;11.182;2023-04-01T03:50:52;8.50;99.90
11538;DHT22;50159;49.426;11.182;2023-04-01T03:53:19;8.50;99.90
11538;DHT22;50159;49.426;11.182;2023-04-01T03:55:46;8.40;99.90
11538;DHT22;50159;49.426;11.182;2023-04-01T03:58:13;8.50;99.90
11538;DHT22;50159;49.426;11.182;2023-04-01T04:00:40;8.40;99.90
11538;DHT22;50159;49.426;11.182;2023-04-01T04:03:07;8.40;99.90
11538;DHT22;50159;49.426;11.182;2023-04-01T04:05:34;8.50;99.90
11538;DHT22;50159;49.426;11.182;2023-04-01T04:08:01;8.40;99.90
11538;DHT22;50159;49.426;11.182;2023-04-01T04:10:29;8.50;99.90
11538;DHT22;50159;49.426;11.182;2023-04-01T04:12:56;8.50;99.90
11538;DHT22;50159;49.426;11.182;2023-04-01T04:15:23;8.50;99.90
11538;DHT22;50159;49.426;11.182;2023-04-01T04:17:49;8.50;99.90
11538;DHT22;50159;49.426;11.182;2023-04-01T04:20:17;8.50;99.90
11538;DHT22;50159;49.426;11.182;2023-04-01T04:22:44;8.50;99.90
11538;DHT22;50159;49.426;11.182;2023-04-01T04:25:10;8.50;99.90
11538;DHT22;50159;49.426;11.182;2023-04-01T04:27:37;8.40;99.90
11538;DHT22;50159;49.426;11.182;2023-04-01T04:30:06;8.40;99.90
11538;DHT22;50159;49.426;11.182;2023-04-01T04:32:34;8.40;99.90
11538;DHT22;50159;49.426;11.182;2023-04-01T04:35:01;8.40;99.90
11538;DHT22;50159;49.426;11.182;2023-04-01T04:37:28;8.40;99.90
11538;DHT22;50159;49.426;11.182;2023-04-01T04:39:55;8.40;99.90
11538;DHT22;50159;49.426;11.182;2023-04-01T04:42:22;8.40;99.90
11538;DHT22;50159;49.426;11.182;2023-04-01T04:44:48;8.40;99.90
11538;DHT22;50159;49.426;11.182;2023-04-01T04:47:15;8.40;99.90
11538;DHT22;50159;49.426;11.182;2023-04-01T04:49:42;8.40;99.90
11538;DHT22;50159;49.426;11.182;2023-04-01T04:52:09;8.40;99.90
11538;DHT22;50159;49.426;11.182;2023-04-01T04:54:41;8.40;99.90
11538;DHT22;50159;49.426;11.182;2023-04-01T04:57:08;8.40;99.90
11538;DHT22;50159;49.426;11.182;2023-04-01T04:59:35;8.40;99.90
11538;DHT22;50159;49.426;11.182;2023-04-01T05:02:03;8.30;99.90
11538;DHT22;50159;49.426;11.182;2023-04-01T05:04:30;8.30;99.90
11538;DHT22;50159;49.426;11.182;2023-04-01T05:07:01;8.30;99.90
11538;DHT22;50159;49.426;11.182;2023-04-01T05:09:28;8.20;99.90
11538;DHT22;50159;49.426;11.182;2023-04-01T05:11:54;8.30;99.90
11538;DHT22;50159;49.426;11.182;2023-04-01T05:14:21;8.20;99.90
11538;DHT22;50159;49.426;11.182;2023-04-01T05:16:48;8.20;99.90
11538;DHT22;50159;49.426;11.182;2023-04-01T05:19:16;8.30;99.90
11538;DHT22;50159;49.426;11.182;2023-04-01T05:21:42;8.30;99.90
11538;DHT22;50159;49.426;11.182;2023-04-01T05:24:09;8.20;99.90
11538;DHT22;50159;49.426;11.182;2023-04-01T05:26:36;8.30;99.90
11538;DHT22;50159;49.426;11.182;2023-04-01T05:29:04;8.30;99.90
11538;DHT22;50159;49.426;11.182;2023-04-01T05:31:31;8.30;99.90
11538;DHT22;50159;49.426;11.182;2023-04-01T05:33:58;8.30;99.90
11538;DHT22;50159;49.426;11.182;2023-04-01T05:36:25;8.30;99.90
11538;DHT22;50159;49.426;11.182;2023-04-01T05:38:55;8.30;99.90
11538;DHT22;50159;49.426;11.182;2023-04-01T05:41:22;8.30;99.90
11538;DHT22;50159;49.426;11.182;2023-04-01T05:43:49;8.30;99.90
11538;DHT22;50159;49.426;11.182;2023-04-01T05:46:16;8.30;99.90
11538;DHT22;50159;49.426;11.182;2023-04-01T05:48:43;8.40;99.90
11538;DHT22;50159;49.426;11.182;2023-04-01T05:51:13;8.40;99.90
11538;DHT22;50159;49.426;11.182;2023-04-01T05:53:42;8.40;99.90
11538;DHT22;50159;49.426;11.182;2023-04-01T05:56:09;8.40;99.90
11538;DHT22;50159;49.426;11.182;2023-04-01T05:58:37;8.40;99.90
11538;DHT22;50159;49.426;11.182;2023-04-01T06:01:09;8.40;99.90
11538;DHT22;50159;49.426;11.182;2023-04-01T06:03:41;8.50;99.90
11538;DHT22;50159;49.426;11.182;2023-04-01T06:06:14;8.50;99.90
11538;DHT22;50159;49.426;11.182;2023-04-01T06:08:43;8.50;99.90
11538;DHT22;50159;49.426;11.182;2023-04-01T06:11:37;8.60;99.90
11538;DHT22;50159;49.426;11.182;2023-04-01T06:17:31;8.60;99.90
11538;DHT22;50159;49.426;11.182;2023-04-01T06:26:28;8.70;99.90
11538;DHT22;50159;49.426;11.182;2023-04-01T06:32:04;8.70;99.90
11538;DHT22;50159;49.426;11.182;2023-04-01T06:34:56;8.70;99.90
11538;DHT22;50159;49.426;11.182;2023-04-01T06:43:46;8.90;99.90
11538;DHT22;50159;49.426;11.182;2023-04-01T06:49:39;9.00;99.90
11538;DHT22;50159;49.426;11.182;2023-04-01T06:52:40;9.00;99.90
11538;DHT22;50159;49.426;11.182;2023-04-01T06:55:26;9.00;99.90
11538;DHT22;50159;49.426;11.182;2023-04-01T06:58:00;9.10;99.90
11538;DHT22;50159;49.426;11.182;2023-04-01T07:00:43;9.10;99.90
11538;DHT22;50159;49.426;11.182;2023-04-01T07:03:20;9.10;99.90
11538;DHT22;50159;49.426;11.182;2023-04-01T07:06:03;9.20;99.90
11538;DHT22;50159;49.426;11.182;2023-04-01T07:08:35;9.30;99.90
11538;DHT22;50159;49.426;11.182;2023-04-01T07:11:08;9.40;99.90
11538;DHT22;50159;49.426;11.182;2023-04-01T07:13:54;9.50;99.90
11538;DHT22;50159;49.426;11.182;2023-04-01T07:16:34;9.60;99.90
11538;DHT22;50159;49.426;11.182;2023-04-01T07:19:15;9.70;99.90
11538;DHT22;50159;49.426;11.182;2023-04-01T07:22:02;9.80;99.90
11538;DHT22;50159;49.426;11.182;2023-04-01T07:24:34;9.80;99.90
11538;DHT22;50159;49.426;11.182;2023-04-01T07:27:10;9.80;99.90
11538;DHT22;50159;49.426;11.182;2023-04-01T07:29:38;9.80;99.90
11538;DHT22;50159;49.426;11.182;2023-04-01T07:35:07;9.80;99.90
11538;DHT22;50159;49.426;11.182;2023-04-01T07:43:56;10.00;99.90
11538;DHT22;50159;49.426;11.182;2023-04-01T07:46:51;10.00;99.90
11538;DHT22;50159;49.426;11.182;2023-04-01T07:52:45;10.00;99.90
11538;DHT22;50159;49.426;11.182;2023-04-01T07:55:31;10.00;99.90
11538;DHT22;50159;49.426;11.182;2023-04-01T07:58:21;10.00;99.90
11538;DHT22;50159;49.426;11.182;2023-04-01T08:01:27;10.00;99.90
11538;DHT22;50159;49.426;11.182;2023-04-01T08:04:28;10.00;99.90
11538;DHT22;50159;49.426;11.182;2023-04-01T08:07:15;10.00;99.20
11538;DHT22;50159;49.426;11.182;2023-04-01T08:21:42;10.10;98.50
11538;DHT22;50159;49.426;11.182;2023-04-01T08:24:19;10.10;98.70
11538;DHT22;50159;49.426;11.182;2023-04-01T08:27:09;10.10;98.50
11538;DHT22;50159;49.426;11.182;2023-04-01T08:29:57;10.20;98.60
11538;DHT22;50159;49.426;11.182;2023-04-01T08:32:34;10.10;97.60
11538;DHT22;50159;49.426;11.182;2023-04-01T08:38:11;10.10;97.40
11538;DHT22;50159;49.426;11.182;2023-04-01T08:59:08;10.10;97.10
11538;DHT22;50159;49.426;11.182;2023-04-01T09:02:22;10.10;97.00
11538;DHT22;50159;49.426;11.182;2023-04-01T09:05:19;10.20;96.60
11538;DHT22;50159;49.426;11.182;2023-04-01T09:29:03;10.20;97.20
11538;DHT22;50159;49.426;11.182;2023-04-01T09:34:30;10.20;97.30
11538;DHT22;50159;49.426;11.182;2023-04-01T09:37:18;10.20;97.40
11538;DHT22;50159;49.426;11.182;2023-04-01T09:45:44;10.30;98.10
11538;DHT22;50159;49.426;11.182;2023-04-01T09:48:40;10.30;98.60
11538;DHT22;50159;49.426;11.182;2023-04-01T09:54:24;10.30;99.90
11538;DHT22;50159;49.426;11.182;2023-04-01T09:57:22;10.30;99.90
11538;DHT22;50159;49.426;11.182;2023-04-01T10:12:53;9.90;99.90
11538;DHT22;50159;49.426;11.182;2023-04-01T10:19:20;9.80;99.90
11538;DHT22;50159;49.426;11.182;2023-04-01T10:25:10;9.90;99.90
11538;DHT22;50159;49.426;11.182;2023-04-01T10:46:37;9.90;99.90
11538;DHT22;50159;49.426;11.182;2023-04-01T10:56:03;9.90;99.90
11538;DHT22;50159;49.426;11.182;2023-04-01T11:02:24;9.80;99.90
11538;DHT22;50159;49.426;11.182;2023-04-01T11:05:22;9.60;99.90
11538;DHT22;50159;49.426;11.182;2023-04-01T11:08:08;9.50;99.90
11538;DHT22;50159;49.426;11.182;2023-04-01T11:25:37;9.30;99.90
11538;DHT22;50159;49.426;11.182;2023-04-01T11:34:43;9.20;99.90
11538;DHT22;50159;49.426;11.182;2023-04-01T11:40:35;9.20;99.90
11538;DHT22;50159;49.426;11.182;2023-04-01T11:43:21;9.20;99.90
11538;DHT22;50159;49.426;11.182;2023-04-01T11:52:33;9.20;99.90
11538;DHT22;50159;49.426;11.182;2023-04-01T12:07:48;9.20;99.90
11538;DHT22;50159;49.426;11.182;2023-04-01T12:10:21;9.20;99.90
11538;DHT22;50159;49.426;11.182;2023-04-01T12:25:14;9.40;99.90
11538;DHT22;50159;49.426;11.182;2023-04-01T12:28:15;9.40;99.90
11538;DHT22;50159;49.426;11.182;2023-04-01T12:34:13;9.50;99.90
11538;DHT22;50159;49.426;11.182;2023-04-01T12:40:09;9.50;99.90
11538;DHT22;50159;49.426;11.182;2023-04-01T13:04:37;9.20;99.90
11538;DHT22;50159;49.426;11.182;2023-04-01T13:07:24;9.30;99.90
11538;DHT22;50159;49.426;11.182;2023-04-01T13:13:30;9.30;99.90
11538;DHT22;50159;49.426;11.182;2023-04-01T13:16:15;9.40;99.90
11538;DHT22;50159;49.426;11.182;2023-04-01T13:25:43;9.40;99.90
11538;DHT22;50159;49.426;11.182;2023-04-01T13:28:45;9.40;99.90
11538;DHT22;50159;49.426;11.182;2023-04-01T13:31:39;9.40;99.90
11538;DHT22;50159;49.426;11.182;2023-04-01T13:34:32;9.40;99.90
11538;DHT22;50159;49.426;11.182;2023-04-01T13:40:39;9.40;99.90
11538;DHT22;50159;49.426;11.182;2023-04-01T13:43:34;9.50;99.90
11538;DHT22;50159;49.426;11.182;2023-04-01T13:46:07;9.60;99.90
11538;DHT22;50159;49.426;11.182;2023-04-01T13:48:57;9.60;99.90
11538;DHT22;50159;49.426;11.182;2023-04-01T14:21:27;9.50;99.90
11538;DHT22;50159;49.426;11.182;2023-04-01T14:27:09;9.50;99.90
11538;DHT22;50159;49.426;11.182;2023-04-01T14:30:27;9.40;99.90
11538;DHT22;50159;49.426;11.182;2023-04-01T14:33:13;9.40;99.90
11538;DHT22;50159;49.426;11.182;2023-04-01T14:40:05;9.40;99.90
11538;DHT22;50159;49.426;11.182;2023-04-01T14:45:55;9.50;99.90
11538;DHT22;50159;49.426;11.182;2023-04-01T14:48:39;9.40;99.90
11538;DHT22;50159;49.426;11.182;2023-04-01T14:51:36;9.40;99.90
11538;DHT22;50159;49.426;11.182;2023-04-01T14:54:31;9.40;99.90
11538;DHT22;50159;49.426;11.182;2023-04-01T14:57:11;9.30;99.90
11538;DHT22;50159;49.426;11.182;2023-04-01T14:59:47;9.30;99.90
11538;DHT22;50159;49.426;11.182;2023-04-01T15:05:26;9.20;99.90
11538;DHT22;50159;49.426;11.182;2023-04-01T15:08:16;9.20;99.90
11538;DHT22;50159;49.426;11.182;2023-04-01T15:13:46;9.20;99.90
11538;DHT22;50159;49.426;11.182;2023-04-01T15:16:53;9.10;99.90
11538;DHT22;50159;49.426;11.182;2023-04-01T15:22:38;9.10;99.90
11538;DHT22;50159;49.426;11.182;2023-04-01T15:28:34;9.10;99.90
11538;DHT22;50159;49.426;11.182;2023-04-01T15:31:29;9.10;99.90
11538;DHT22;50159;49.426;11.182;2023-04-01T15:34:09;9.10;99.90
11538;DHT22;50159;49.426;11.182;2023-04-01T15:39:57;9.20;99.90
11538;DHT22;50159;49.426;11.182;2023-04-01T15:48:57;9.30;99.90
11538;DHT22;50159;49.426;11.182;2023-04-01T15:55:08;9.30;99.90
11538;DHT22;50159;49.426;11.182;2023-04-01T16:00:47;9.30;99.90
11538;DHT22;50159;49.426;11.182;2023-04-01T16:20:52;9.30;99.90
11538;DHT22;50159;49.426;11.182;2023-04-01T16:23:39;9.30;99.90
11538;DHT22;50159;49.426;11.182;2023-04-01T16:32:38;9.40;99.90
11538;DHT22;50159;49.426;11.182;2023-04-01T16:35:59;9.40;99.90
11538;DHT22;50159;49.426;11.182;2023-04-01T16:41:17;9.30;99.90
11538;DHT22;50159;49.426;11.182;2023-04-01T16:43:50;9.30;99.90
11538;DHT22;50159;49.426;11.182;2023-04-01T16:51:53;9.30;99.90
11538;DHT22;50159;49.426;11.182;2023-04-01T16:54:45;9.30;99.90
11538;DHT22;50159;49.426;11.182;2023-04-01T17:00:27;9.30;99.90
11538;DHT22;50159;49.426;11.182;2023-04-01T17:03:12;9.20;99.90
11538;DHT22;50159;49.426;11.182;2023-04-01T17:06:11;9.20;99.90
11538;DHT22;50159;49.426;11.182;2023-04-01T17:09:06;9.20;99.90
11538;DHT22;50159;49.426;11.182;2023-04-01T17:11:43;9.20;99.90
11538;DHT22;50159;49.426;11.182;2023-04-01T17:20:14;9.10;99.90
11538;DHT22;50159;49.426;11.182;2023-04-01T17:23:13;9.10;99.90
11538;DHT22;50159;49.426;11.182;2023-04-01T17:26:12;9.10;99.90
11538;DHT22;50159;49.426;11.182;2023-04-01T17:28:57;9.00;99.90
11538;DHT22;50159;49.426;11.182;2023-04-01T17:32:09;9.00;99.90
11538;DHT22;50159;49.426;11.182;2023-04-01T17:35:02;9.00;99.90
11538;DHT22;50159;49.426;11.182;2023-04-01T17:46:37;9.00;99.90
11538;DHT22;50159;49.426;11.182;2023-04-01T17:50:13;9.00;99.90
11538;DHT22;50159;49.426;11.182;2023-04-01T17:52:39;9.00;99.90
11538;DHT22;50159;49.426;11.182;2023-04-01T17:58:00;9.00;99.90
11538;DHT22;50159;49.426;11.182;2023-04-01T18:00:55;9.00;99.90
11538;DHT22;50159;49.426;11.182;2023-04-01T18:06:33;9.00;99.90
11538;DHT22;50159;49.426;11.182;2023-04-01T18:12:25;9.00;99.90
11538;DHT22;50159;49.426;11.182;2023-04-01T18:18:46;9.00;99.90
11538;DHT22;50159;49.426;11.182;2023-04-01T18:21:50;9.00;99.90
11538;DHT22;50159;49.426;11.182;2023-04-01T18:24:54;9.00;99.90
11538;DHT22;50159;49.426;11.182;2023-04-01T18:27:32;9.00;99.90
11538;DHT22;50159;49.426;11.182;2023-04-01T18:30:17;9.00;99.90
11538;DHT22;50159;49.426;11.182;2023-04-01T18:33:17;9.00;99.90
11538;DHT22;50159;49.426;11.182;2023-04-01T18:36:03;9.00;99.90
11538;DHT22;50159;49.426;11.182;2023-04-01T18:38:53;9.00;99.90
11538;DHT22;50159;49.426;11.182;2023-04-01T18:41:50;9.00;99.90
11538;DHT22;50159;49.426;11.182;2023-04-01T18:47:24;9.00;99.90
11538;DHT22;50159;49.426;11.182;2023-04-01T18:56:13;9.00;99.90
11538;DHT22;50159;49.426;11.182;2023-04-01T18:59:02;8.90;99.90
11538;DHT22;50159;49.426;11.182;2023-04-01T19:04:56;8.90;99.90
11538;DHT22;50159;49.426;11.182;2023-04-01T19:21:57;9.00;99.90
11538;DHT22;50159;49.426;11.182;2023-04-01T19:27:58;8.90;99.90
11538;DHT22;50159;49.426;11.182;2023-04-01T19:33:38;8.90;99.90
11538;DHT22;50159;49.426;11.182;2023-04-01T19:36:27;8.90;99.90
11538;DHT22;50159;49.426;11.182;2023-04-01T19:45:43;8.90;99.90
11538;DHT22;50159;49.426;11.182;2023-04-01T19:48:30;8.90;99.90
11538;DHT22;50159;49.426;11.182;2023-04-01T19:51:31;8.90;99.90
11538;DHT22;50159;49.426;11.182;2023-04-01T19:54:36;8.90;99.90
11538;DHT22;50159;49.426;11.182;2023-04-01T19:57:34;8.90;99.90
11538;DHT22;50159;49.426;11.182;2023-04-01T20:00:47;8.90;99.90
11538;DHT22;50159;49.426;11.182;2023-04-01T20:09:49;8.90;99.90
11538;DHT22;50159;49.426;11.182;2023-04-01T20:15:32;8.90;99.90
11538;DHT22;50159;49.426;11.182;2023-04-01T20:18:15;8.90;99.90
11538;DHT22;50159;49.426;11.182;2023-04-01T20:20:59;8.90;99.90
11538;DHT22;50159;49.426;11.182;2023-04-01T20:23:33;8.90;99.90
11538;DHT22;50159;49.426;11.182;2023-04-01T20:26:14;8.90;99.90
11538;DHT22;50159;49.426;11.182;2023-04-01T20:31:43;9.00;99.90
11538;DHT22;50159;49.426;11.182;2023-04-01T20:37:25;8.90;99.90
11538;DHT22;50159;49.426;11.182;2023-04-01T20:51:54;8.90;99.90
11538;DHT22;50159;49.426;11.182;2023-04-01T20:54:42;8.90;99.90
11538;DHT22;50159;49.426;11.182;2023-04-01T20:57:49;8.80;99.90
11538;DHT22;50159;49.426;11.182;2023-04-01T21:06:36;8.80;99.90
11538;DHT22;50159;49.426;11.182;2023-04-01T21:18:54;8.70;99.90
11538;DHT22;50159;49.426;11.182;2023-04-01T21:27:54;8.70;99.90
11538;DHT22;50159;49.426;11.182;2023-04-01T21:45:50;8.70;99.90
11538;DHT22;50159;49.426;11.182;2023-04-01T21:52:10;8.70;99.90
11538;DHT22;50159;49.426;11.182;2023-04-01T22:00:48;8.60;99.90
11538;DHT22;50159;49.426;11.182;2023-04-01T22:09:11;8.60;99.90
11538;DHT22;50159;49.426;11.182;2023-04-01T22:17:43;8.60;99.90
11538;DHT22;50159;49.426;11.182;2023-04-01T22:20:31;8.60;99.90
11538;DHT22;50159;49.426;11.182;2023-04-01T22:23:20;8.60;99.90
11538;DHT22;50159;49.426;11.182;2023-04-01T22:28:51;8.60;99.90
11538;DHT22;50159;49.426;11.182;2023-04-01T22:37:07;8.60;99.90
11538;DHT22;50159;49.426;11.182;2023-04-01T22:40:33;8.60;99.90
11538;DHT22;50159;49.426;11.182;2023-04-01T22:43:16;8.60;99.90
11538;DHT22;50159;49.426;11.182;2023-04-01T22:49:18;8.60;99.90
11538;DHT22;50159;49.426;11.182;2023-04-01T22:54:45;8.60;99.90
11538;DHT22;50159;49.426;11.182;2023-04-01T23:05:47;8.50;99.90
11538;DHT22;50159;49.426;11.182;2023-04-01T23:11:16;8.50;99.90
11538;DHT22;50159;49.426;11.182;2023-04-01T23:13:50;8.50;99.90
11538;DHT22;50159;49.426;11.182;2023-04-01T23:16:30;8.40;99.90
11538;DHT22;50159;49.426;11.182;2023-04-01T23:19:14;8.40;99.90
11538;DHT22;50159;49.426;11.182;2023-04-01T23:21:54;8.40;99.90
11538;DHT22;50159;49.426;11.182;2023-04-01T23:25:13;8.40;99.90
11538;DHT22;50159;49.426;11.182;2023-04-01T23:28:15;8.40;99.90
11538;DHT22;50159;49.426;11.182;2023-04-01T23:30:51;8.40;99.90
11538;DHT22;50159;49.426;11.182;2023-04-01T23:35:48;8.30;99.90
11538;DHT22;50159;49.426;11.182;2023-04-01T23:38:22;8.30;99.90
11538;DHT22;50159;49.426;11.182;2023-04-01T23:40:54;8.30;99.90
11538;DHT22;50159;49.426;11.182;2023-04-01T23:43:38;8.30;99.90
11538;DHT22;50159;49.426;11.182;2023-04-01T23:46:08;8.30;99.90
11538;DHT22;50159;49.426;11.182;2023-04-01T23:48:43;8.30;99.90
11538;DHT22;50159;49.426;11.182;2023-04-01T23:51:26;8.30;99.90
11538;DHT22;50159;49.426;11.182;2023-04-01T23:54:03;8.30;99.90
11538;DHT22;50159;49.426;11.182;2023-04-01T23:56:53;8.30;99.90
11538;DHT22;50159;49.426;11.182;2023-04-01T23:59:30;8.30;99.90
